Time;durP1;ratioP1;P1;durP2;ratioP2;P2;SDS_P1;SDS_P2;PMS_P1;PMS_P2;Temp;Humidity;BMP_temperature;BMP_pressure;BME280_temperature;BME280_humidity;BME280_pressure;Samples;Min_cycle;Max_cycle;Signal;HPM_P1;HPM_P2
2023/10/30 00:00:08;;;;;;;0.20;0.20;;;;;;;12.05;82.30;96371.78;5048760;28;20049;-72
2023/10/30 00:02:36;;;;;;;0.22;0.22;;;;;;;12.01;82.31;96377.84;5050386;28;20092;-72
2023/10/30 00:05:06;;;;;;;0.20;0.20;;;;;;;12.03;81.78;96371.22;5044691;28;20111;-73
2023/10/30 00:07:34;;;;;;;0.60;0.60;;;;;;;12.01;81.79;96359.94;5042275;28;20427;-73
2023/10/30 00:10:03;;;;;;;0.20;0.20;;;;;;;11.98;81.78;96349.72;5051387;28;20132;-73
2023/10/30 00:12:31;;;;;;;0.45;0.45;;;;;;;11.96;81.79;96361.69;5047906;28;20045;-72
2023/10/30 00:15:02;;;;;;;0.22;0.22;;;;;;;11.94;81.28;96369.16;5048163;28;20049;-72
2023/10/30 00:17:30;;;;;;;0.20;0.20;;;;;;;11.97;81.36;96388.19;5049398;28;20056;-72
2023/10/30 00:19:58;;;;;;;0.30;0.30;;;;;;;11.94;81.22;96385.97;5050615;28;20044;-72
2023/10/30 00:22:26;;;;;;;0.20;0.20;;;;;;;11.94;81.40;96390.53;5050845;28;20510;-71
2023/10/30 00:24:54;;;;;;;0.32;0.32;;;;;;;11.93;81.61;96391.59;5048757;28;20044;-71
2023/10/30 00:27:23;;;;;;;0.20;0.20;;;;;;;11.93;81.21;96399.59;5045008;28;20041;-72
2023/10/30 00:29:51;;;;;;;0.20;0.20;;;;;;;11.93;80.88;96391.59;5031610;28;20053;-72
2023/10/30 00:32:19;;;;;;;0.13;0.13;;;;;;;11.93;80.63;96391.59;5043963;28;20148;-71
2023/10/30 00:34:46;;;;;;;0.20;0.20;;;;;;;11.91;80.89;96413.19;5050173;28;20076;-71
2023/10/30 00:37:14;;;;;;;0.20;0.20;;;;;;;11.90;80.92;96416.91;5025545;28;20039;-71
2023/10/30 00:39:43;;;;;;;0.20;0.20;;;;;;;11.90;80.78;96414.25;5032807;28;20041;-72
2023/10/30 00:42:11;;;;;;;0.20;0.20;;;;;;;11.88;80.78;96419.00;5043526;28;20041;-72
2023/10/30 00:44:40;;;;;;;0.30;0.30;;;;;;;11.90;80.66;96427.63;5052930;28;20442;-72
2023/10/30 00:47:08;;;;;;;0.20;0.20;;;;;;;11.95;80.27;96414.34;5031138;28;20386;-72
2023/10/30 00:49:35;;;;;;;0.20;0.20;;;;;;;11.92;80.11;96420.19;5051330;28;20352;-72
2023/10/30 00:52:03;;;;;;;0.20;0.20;;;;;;;11.90;80.34;96427.63;5025700;28;20056;-71
2023/10/30 00:54:32;;;;;;;0.20;0.20;;;;;;;11.90;80.18;96445.50;5035514;28;20053;-71
2023/10/30 00:56:59;;;;;;;0.10;0.10;;;;;;;11.94;79.54;96434.09;5035924;28;20495;-71
2023/10/30 00:59:27;;;;;;;0.30;0.30;;;;;;;11.94;79.63;96427.97;5028300;28;20143;-71
2023/10/30 01:01:56;;;;;;;0.20;0.20;;;;;;;11.94;79.47;96417.28;5043792;28;20106;-72
2023/10/30 01:04:24;;;;;;;0.30;0.30;;;;;;;11.93;79.72;96435.19;5053516;28;20041;-72
2023/10/30 01:06:52;;;;;;;0.30;0.30;;;;;;;11.93;79.79;96443.19;5053397;28;20117;-72
2023/10/30 01:09:20;;;;;;;0.20;0.20;;;;;;;11.91;79.80;96437.28;5032729;28;20063;-71
2023/10/30 01:11:47;;;;;;;0.50;0.50;;;;;;;11.91;79.68;96431.09;5032550;28;20432;-72
2023/10/30 01:14:15;;;;;;;0.35;0.35;;;;;;;11.87;79.79;96422.72;5024589;28;20048;-72
2023/10/30 01:16:43;;;;;;;0.20;0.20;;;;;;;11.86;80.30;96437.13;5051353;28;20389;-71
2023/10/30 01:19:12;;;;;;;0.40;0.40;;;;;;;11.86;80.03;96439.81;5032440;28;20136;-72
2023/10/30 01:21:40;;;;;;;0.20;0.20;;;;;;;11.86;80.56;96423.75;5041514;28;20047;-71
2023/10/30 01:24:09;;;;;;;0.20;0.20;;;;;;;11.87;80.57;96429.94;5050939;28;20389;-72
2023/10/30 01:26:38;;;;;;;0.32;0.32;;;;;;;11.82;80.84;96446.69;5047849;28;20041;-72
2023/10/30 01:29:06;;;;;;;0.13;0.13;;;;;;;11.79;81.21;96439.09;5035624;28;20136;-72
2023/10/30 01:31:34;;;;;;;0.20;0.20;;;;;;;11.76;81.39;96429.69;5046306;28;20132;-72
2023/10/30 01:34:02;;;;;;;0.25;0.25;;;;;;;11.75;81.70;96424.56;5048633;28;20156;-72
2023/10/30 01:36:31;;;;;;;0.30;0.30;;;;;;;11.77;81.57;96427.81;5048450;28;20033;-72
2023/10/30 01:38:58;;;;;;;0.22;0.22;;;;;;;11.77;81.69;96420.63;5034112;28;20053;-72
2023/10/30 01:41:26;;;;;;;0.30;0.30;;;;;;;11.77;81.50;96417.13;5052227;28;20564;-72
2023/10/30 01:43:54;;;;;;;0.20;0.20;;;;;;;11.72;82.07;96428.50;5046435;28;20044;-73
2023/10/30 01:46:22;;;;;;;0.20;0.20;;;;;;;11.71;81.88;96429.53;5033312;28;20053;-72
2023/10/30 01:48:50;;;;;;;0.20;0.20;;;;;;;11.71;81.90;96447.44;5035788;28;20511;-72
2023/10/30 01:51:19;;;;;;;0.22;0.22;;;;;;;11.74;81.77;96463.00;5046659;28;20044;-72
2023/10/30 01:53:49;;;;;;;0.20;0.20;;;;;;;11.75;81.61;96454.78;5045127;28;20450;-73
2023/10/30 01:56:17;;;;;;;0.25;0.25;;;;;;;11.77;81.50;96449.22;5041835;28;20158;-72
2023/10/30 01:58:45;;;;;;;0.10;0.10;;;;;;;11.76;81.56;96475.13;5030478;28;20065;-72
2023/10/30 02:01:14;;;;;;;0.20;0.20;;;;;;;11.75;81.93;96457.47;5048978;28;20509;-72
2023/10/30 02:03:42;;;;;;;0.32;0.32;;;;;;;11.71;82.31;96445.59;5022483;28;20987;-72
2023/10/30 02:06:10;;;;;;;0.45;0.45;;;;;;;11.72;82.45;96447.22;5036565;28;20507;-72
2023/10/30 02:08:38;;;;;;;0.20;0.20;;;;;;;11.67;82.93;96451.59;5044419;28;20099;-72
2023/10/30 02:11:07;;;;;;;0.20;0.20;;;;;;;11.68;82.82;96459.41;5031257;28;20045;-73
2023/10/30 02:13:34;;;;;;;0.50;0.35;;;;;;;11.64;83.32;96473.44;5028232;28;20041;-73
2023/10/30 02:16:02;;;;;;;0.20;0.20;;;;;;;11.64;82.84;96460.06;5047615;28;20044;-74
2023/10/30 02:18:30;;;;;;;0.43;0.43;;;;;;;11.65;82.91;96469.72;5027060;28;20548;-73
2023/10/30 02:20:58;;;;;;;0.65;0.65;;;;;;;11.65;82.83;96477.75;5045301;28;20451;-74
2023/10/30 02:23:25;;;;;;;0.20;0.20;;;;;;;11.63;82.61;96466.47;5046331;28;20072;-74
2023/10/30 02:25:55;;;;;;;0.10;0.10;;;;;;;11.63;82.48;96453.91;5046648;28;20041;-73
2023/10/30 02:28:23;;;;;;;0.47;0.47;;;;;;;11.63;82.82;96450.44;5047492;28;20400;-73
2023/10/30 02:30:51;;;;;;;0.30;0.30;;;;;;;11.60;82.90;96469.63;5023557;28;20049;-73
2023/10/30 02:33:18;;;;;;;0.30;0.30;;;;;;;11.58;82.80;96474.38;5032556;28;20063;-72
2023/10/30 02:35:46;;;;;;;0.10;0.10;;;;;;;11.59;82.61;96468.78;5054420;28;20051;-72
2023/10/30 02:38:14;;;;;;;0.47;0.47;;;;;;;11.58;82.28;96474.38;5027248;28;20540;-73
2023/10/30 02:40:42;;;;;;;0.30;0.30;;;;;;;11.57;82.26;96480.75;5045158;28;20040;-73
2023/10/30 02:43:11;;;;;;;0.13;0.13;;;;;;;11.60;82.29;96488.31;5050452;28;20120;-73
2023/10/30 02:45:39;;;;;;;0.20;0.20;;;;;;;11.60;82.13;96477.63;5066451;23;20546;-73
2023/10/30 02:48:07;;;;;;;0.17;0.17;;;;;;;11.58;82.34;96456.47;5028771;28;20045;-72
2023/10/30 02:50:34;;;;;;;0.20;0.20;;;;;;;11.60;81.88;96456.25;5036507;28;20050;-73
2023/10/30 02:53:02;;;;;;;0.30;0.30;;;;;;;11.62;81.56;96456.84;5045112;28;20048;-72
2023/10/30 02:55:32;;;;;;;0.20;0.20;;;;;;;11.60;81.33;96465.09;5047750;28;20507;-72
2023/10/30 02:57:59;;;;;;;0.45;0.30;;;;;;;11.60;80.70;96465.09;5049340;28;20037;-72
2023/10/30 03:00:28;;;;;;;0.20;0.20;;;;;;;11.57;80.89;96454.84;5048577;28;20045;-71
2023/10/30 03:02:56;;;;;;;0.20;0.20;;;;;;;11.54;81.17;96459.81;5049352;28;20041;-73
2023/10/30 03:05:24;;;;;;;0.30;0.30;;;;;;;11.55;80.64;96437.41;5023613;28;20049;-75
2023/10/30 03:07:52;;;;;;;0.40;0.40;;;;;;;11.55;80.68;96440.06;5049336;28;20033;-71
2023/10/30 03:10:21;;;;;;;0.28;0.28;;;;;;;11.54;80.20;96449.94;5048272;28;20492;-72
2023/10/30 03:12:49;;;;;;;0.20;0.20;;;;;;;11.59;79.86;96468.78;5024238;28;20049;-72
2023/10/30 03:15:17;;;;;;;1.10;0.38;;;;;;;11.56;79.69;96469.25;5041602;28;20047;-76
2023/10/30 03:17:46;;;;;;;0.22;0.22;;;;;;;11.56;80.03;96484.47;5022368;28;20102;-73
2023/10/30 03:20:14;;;;;;;0.20;0.20;;;;;;;11.54;79.94;96483.88;5020262;28;20044;-73
2023/10/30 03:22:42;;;;;;;0.30;0.30;;;;;;;11.51;80.32;96482.50;5036229;28;20049;-73
2023/10/30 03:25:09;;;;;;;0.20;0.20;;;;;;;11.49;80.39;96484.56;5045689;28;20045;-72
2023/10/30 03:27:38;;;;;;;0.15;0.15;;;;;;;11.49;80.68;96484.56;5030642;28;20412;-72
2023/10/30 03:30:08;;;;;;;0.35;0.35;;;;;;;11.45;80.68;96482.56;5041119;28;20416;-72
2023/10/30 03:32:35;;;;;;;0.25;0.25;;;;;;;11.39;80.85;96473.63;5035124;28;20514;-73
2023/10/30 03:35:05;;;;;;;0.30;0.30;;;;;;;11.37;81.04;96478.38;5043309;28;20045;-73
2023/10/30 03:37:33;;;;;;;0.45;0.45;;;;;;;11.35;80.76;96475.09;5037075;28;20524;-72
2023/10/30 03:40:01;;;;;;;0.20;0.20;;;;;;;11.38;81.05;96471.97;5024551;28;20067;-72
2023/10/30 03:42:29;;;;;;;0.28;0.28;;;;;;;11.31;81.20;96463.25;5035652;28;20049;-73
2023/10/30 03:44:57;;;;;;;0.30;0.30;;;;;;;11.35;80.58;96467.91;5039858;28;20049;-72
2023/10/30 03:47:25;;;;;;;0.55;0.55;;;;;;;11.40;80.84;96475.25;5036723;28;20743;-72
2023/10/30 03:49:53;;;;;;;0.47;0.30;;;;;;;11.32;81.19;96472.88;5036881;28;20073;-71
2023/10/30 03:52:22;;;;;;;0.45;0.45;;;;;;;11.35;81.05;96473.25;5036319;28;20041;-73
2023/10/30 03:54:49;;;;;;;0.13;0.13;;;;;;;11.32;81.46;96472.88;5038825;28;20073;-75
2023/10/30 03:57:17;;;;;;;0.30;0.30;;;;;;;11.30;81.25;96459.78;5019234;28;20041;-75
2023/10/30 03:59:45;;;;;;;0.30;0.30;;;;;;;11.33;81.00;96448.59;5035734;28;20574;-75
2023/10/30 04:02:13;;;;;;;0.40;0.40;;;;;;;11.34;81.24;96452.09;5036723;28;20037;-74
2023/10/30 04:04:41;;;;;;;0.20;0.20;;;;;;;11.30;81.25;96438.41;5037566;28;20496;-74
2023/10/30 04:07:09;;;;;;;0.20;0.20;;;;;;;11.31;80.85;96429.34;5037198;28;20041;-74
2023/10/30 04:09:38;;;;;;;0.20;0.20;;;;;;;11.34;80.80;96430.72;5043197;28;20047;-74
2023/10/30 04:12:06;;;;;;;0.30;0.30;;;;;;;11.31;80.81;96434.69;5039511;28;20566;-73
2023/10/30 04:14:34;;;;;;;0.30;0.30;;;;;;;11.34;80.67;96428.06;5040569;28;20052;-72
2023/10/30 04:17:02;;;;;;;0.30;0.30;;;;;;;11.31;80.76;96431.19;5043945;28;20042;-74
2023/10/30 04:19:31;;;;;;;0.40;0.40;;;;;;;11.28;80.87;96445.81;5046689;28;20083;-72
2023/10/30 04:21:58;;;;;;;0.30;0.30;;;;;;;11.29;81.02;96450.13;5024741;28;20095;-72
2023/10/30 04:24:26;;;;;;;0.20;0.20;;;;;;;11.26;81.21;96449.75;5044621;28;20056;-73
2023/10/30 04:26:55;;;;;;;0.30;0.30;;;;;;;11.24;81.18;96459.84;5045272;28;20060;-74
2023/10/30 04:29:23;;;;;;;0.20;0.20;;;;;;;11.19;81.25;96463.22;5039837;28;20048;-72
2023/10/30 04:31:51;;;;;;;0.30;0.30;;;;;;;11.20;81.09;96459.50;5043603;28;20052;-72
2023/10/30 04:34:19;;;;;;;0.30;0.30;;;;;;;11.23;81.17;96455.53;5040328;28;20049;-73
2023/10/30 04:36:47;;;;;;;0.30;0.30;;;;;;;11.24;80.86;96459.84;5041609;28;20049;-75
2023/10/30 04:39:15;;;;;;;0.40;0.40;;;;;;;11.16;81.23;96452.97;5042481;28;20522;-72
2023/10/30 04:41:42;;;;;;;0.30;0.30;;;;;;;11.16;80.98;96458.31;5042290;28;20037;-74
2023/10/30 04:44:11;;;;;;;0.20;0.20;;;;;;;11.19;80.59;96447.19;5021019;28;20052;-71
2023/10/30 04:46:40;;;;;;;0.22;0.22;;;;;;;11.22;80.38;96438.69;5039777;28;20037;-74
2023/10/30 04:49:07;;;;;;;0.22;0.22;;;;;;;11.21;80.46;96439.75;5045559;28;20076;-72
2023/10/30 04:51:35;;;;;;;0.30;0.30;;;;;;;11.19;80.63;96452.53;5040710;28;20048;-72
2023/10/30 04:54:03;;;;;;;0.40;0.35;;;;;;;11.20;80.36;96451.50;5040181;28;20049;-73
2023/10/30 04:56:31;;;;;;;0.45;0.45;;;;;;;11.17;80.46;96456.47;5024344;28;20223;-72
2023/10/30 04:58:58;;;;;;;0.25;0.25;;;;;;;11.15;80.71;96455.88;5045726;28;20045;-73
2023/10/30 05:01:27;;;;;;;0.40;0.40;;;;;;;11.12;80.95;96457.13;5048399;28;20047;-72
2023/10/30 05:03:55;;;;;;;0.38;0.38;;;;;;;11.11;80.94;96455.50;5050191;28;20079;-73
2023/10/30 05:06:23;;;;;;;0.20;0.20;;;;;;;11.14;80.94;96447.03;5044111;28;20124;-74
2023/10/30 05:08:50;;;;;;;0.32;0.32;;;;;;;11.12;81.17;96442.94;5042196;28;20083;-72
2023/10/30 05:11:18;;;;;;;0.22;0.22;;;;;;;11.18;80.91;96439.41;5041699;28;20411;-73
2023/10/30 05:13:46;;;;;;;0.20;0.20;;;;;;;11.12;80.68;96438.44;5043978;28;20055;-73
2023/10/30 05:16:13;;;;;;;0.20;0.20;;;;;;;11.09;81.09;96435.41;5048023;28;20122;-73
2023/10/30 05:18:42;;;;;;;0.28;0.28;;;;;;;11.06;81.14;96435.88;5031687;28;20128;-73
2023/10/30 05:21:10;;;;;;;0.20;0.20;;;;;;;11.04;81.24;96428.06;5048394;28;20049;-73
2023/10/30 05:23:41;;;;;;;0.17;0.15;;;;;;;11.04;81.26;96425.41;5042321;28;20046;-71
2023/10/30 05:26:09;;;;;;;0.20;0.20;;;;;;;11.01;81.06;96436.53;5052724;28;20041;-72
2023/10/30 05:28:36;;;;;;;0.30;0.30;;;;;;;10.99;80.81;96447.47;5037085;28;20045;-72
2023/10/30 05:31:06;;;;;;;0.20;0.20;;;;;;;11.01;80.61;96433.84;5038677;28;20099;-73
2023/10/30 05:33:34;;;;;;;0.20;0.20;;;;;;;11.04;80.58;96444.91;5044870;28;20056;-74
2023/10/30 05:36:04;;;;;;;0.30;0.30;;;;;;;11.01;80.47;96448.03;5047536;28;20049;-73
2023/10/30 05:38:32;;;;;;;0.43;0.43;;;;;;;11.00;80.41;96443.72;5036798;28;20130;-74
2023/10/30 05:40:59;;;;;;;0.20;0.20;;;;;;;11.01;79.93;96442.69;5044440;28;20048;-73
2023/10/30 05:43:28;;;;;;;0.20;0.20;;;;;;;11.02;79.66;96446.97;5044558;28;20045;-73
2023/10/30 05:45:56;;;;;;;0.20;0.20;;;;;;;11.02;79.42;96456.84;5041466;28;20053;-72
2023/10/30 05:48:24;;;;;;;0.25;0.25;;;;;;;11.00;79.48;96449.06;5023449;28;20103;-73
2023/10/30 05:50:51;;;;;;;0.20;0.20;;;;;;;10.95;79.63;96454.28;5038030;28;20068;-73
2023/10/30 05:53:20;;;;;;;0.30;0.30;;;;;;;10.92;80.04;96460.06;5045626;28;20055;-74
2023/10/30 05:55:48;;;;;;;0.20;0.20;;;;;;;10.88;79.96;96458.06;5044446;28;20067;-73
2023/10/30 05:58:17;;;;;;;0.25;0.25;;;;;;;10.87;79.90;96456.44;5028275;28;20057;-73
2023/10/30 06:00:45;;;;;;;0.30;0.30;;;;;;;10.82;79.96;96458.94;5027671;28;20124;-73
2023/10/30 06:03:13;;;;;;;0.30;0.30;;;;;;;10.86;79.74;96458.28;5047686;28;20116;-74
2023/10/30 06:05:41;;;;;;;0.28;0.28;;;;;;;10.82;79.54;96457.09;5052298;28;20045;-73
2023/10/30 06:08:09;;;;;;;0.20;0.20;;;;;;;10.80;79.92;96448.50;5038602;28;20132;-75
2023/10/30 06:10:38;;;;;;;0.25;0.25;;;;;;;10.80;79.97;96445.00;5048897;28;20037;-77
2023/10/30 06:13:07;;;;;;;0.20;0.20;;;;;;;10.77;79.73;96458.81;5045712;28;20059;-74
2023/10/30 06:15:35;;;;;;;0.30;0.30;;;;;;;10.84;79.29;96452.34;5035688;28;20116;-75
2023/10/30 06:18:03;;;;;;;0.10;0.10;;;;;;;10.80;79.27;96456.50;5050342;28;20068;-75
2023/10/30 06:20:31;;;;;;;0.30;0.30;;;;;;;10.81;79.36;96460.81;5038343;28;20059;-75
2023/10/30 06:22:59;;;;;;;0.35;0.35;;;;;;;10.77;79.26;96448.16;5049253;28;20049;-74
2023/10/30 06:25:27;;;;;;;0.20;0.20;;;;;;;10.77;79.22;96462.31;5052677;28;20045;-74
2023/10/30 06:27:56;;;;;;;0.30;0.30;;;;;;;10.74;79.19;96453.94;5040992;28;20049;-73
2023/10/30 06:30:24;;;;;;;0.35;0.35;;;;;;;10.77;79.29;96453.50;5041628;28;20048;-73
2023/10/30 06:32:51;;;;;;;0.32;0.32;;;;;;;10.73;79.27;96466.44;5041400;28;20052;-74
2023/10/30 06:35:19;;;;;;;0.40;0.20;;;;;;;10.71;79.48;96454.38;5049588;28;20056;-75
2023/10/30 06:37:47;;;;;;;0.38;0.38;;;;;;;10.69;79.48;96446.59;5044049;28;20439;-73
2023/10/30 06:40:15;;;;;;;0.20;0.20;;;;;;;10.68;79.32;96447.66;5049202;28;20037;-75
2023/10/30 06:42:44;;;;;;;0.20;0.20;;;;;;;10.68;79.28;96469.00;5052059;28;20049;-73
2023/10/30 06:45:13;;;;;;;0.20;0.20;;;;;;;10.69;79.33;96454.63;5050634;28;20045;-75
2023/10/30 06:47:41;;;;;;;0.20;0.20;;;;;;;10.69;79.37;96470.63;5042817;28;20057;-73
2023/10/30 06:50:09;;;;;;;0.30;0.30;;;;;;;10.70;79.25;96474.91;5033078;28;20136;-74
2023/10/30 06:52:37;;;;;;;0.20;0.20;;;;;;;10.74;79.37;96481.44;5044934;28;20041;-74
2023/10/30 06:55:05;;;;;;;0.25;0.25;;;;;;;10.76;79.17;96494.56;5031023;28;20055;-73
2023/10/30 06:57:33;;;;;;;0.10;0.10;;;;;;;10.79;79.41;96492.28;5049475;28;20123;-73
2023/10/30 07:00:01;;;;;;;0.30;0.30;;;;;;;10.82;79.32;96493.66;5049882;28;20094;-74
2023/10/30 07:02:32;;;;;;;0.28;0.28;;;;;;;10.86;79.06;96501.00;5051952;28;20072;-73
2023/10/30 07:05:00;;;;;;;0.20;0.20;;;;;;;10.89;79.37;96478.41;5047400;28;20550;-73
2023/10/30 07:07:28;;;;;;;0.20;0.20;;;;;;;10.92;78.91;96488.59;5047064;28;20045;-73
2023/10/30 07:09:55;;;;;;;0.30;0.30;;;;;;;10.96;79.02;96485.28;5045485;28;20124;-72
2023/10/30 07:12:23;;;;;;;0.20;0.20;;;;;;;11.00;78.39;96493.66;5047101;28;20051;-73
2023/10/30 07:14:51;;;;;;;0.20;0.20;;;;;;;11.02;78.50;96503.06;5049453;28;20065;-73
2023/10/30 07:17:21;;;;;;;0.15;0.15;;;;;;;11.07;78.14;96499.72;5045145;28;20045;-74
2023/10/30 07:19:51;;;;;;;0.28;0.28;;;;;;;11.12;78.07;96510.53;5047469;28;20048;-73
2023/10/30 07:22:18;;;;;;;0.22;0.22;;;;;;;11.19;77.79;96513.97;5052009;28;20045;-74
2023/10/30 07:24:46;;;;;;;0.25;0.25;;;;;;;11.25;77.86;96517.56;5052608;28;20041;-72
2023/10/30 07:27:14;;;;;;;0.47;0.47;;;;;;;11.32;77.40;96527.13;5027354;28;20069;-73
2023/10/30 07:29:45;;;;;;;0.10;0.10;;;;;;;11.40;77.53;96516.13;5050841;28;20439;-74
2023/10/30 07:32:13;;;;;;;0.30;0.30;;;;;;;11.49;76.94;96523.84;5047350;28;20055;-74
2023/10/30 07:34:41;;;;;;;0.17;0.17;;;;;;;11.55;76.87;96525.59;5050183;28;20051;-75
2023/10/30 07:37:10;;;;;;;0.32;0.32;;;;;;;11.58;77.11;96549.19;5030574;28;20049;-75
2023/10/30 07:39:38;;;;;;;0.25;0.25;;;;;;;11.59;77.11;96532.94;5047639;28;20049;-74
2023/10/30 07:42:05;;;;;;;0.20;0.20;;;;;;;11.61;76.72;96536.19;5031891;28;20049;-74
2023/10/30 07:44:33;;;;;;;0.50;0.30;;;;;;;11.62;76.76;96543.19;5054237;28;20052;-73
2023/10/30 07:47:01;;;;;;;0.20;0.20;;;;;;;11.58;77.48;96546.53;5014750;28;20091;-75
2023/10/30 07:49:29;;;;;;;0.28;0.28;;;;;;;11.58;77.68;96550.00;5050434;28;20519;-75
2023/10/30 07:51:56;;;;;;;0.35;0.35;;;;;;;11.58;77.40;96554.53;5041590;28;20470;-74
2023/10/30 07:54:26;;;;;;;0.35;0.28;;;;;;;11.57;77.77;96558.25;5044892;28;20049;-74
2023/10/30 07:56:53;;;;;;;0.30;0.30;;;;;;;11.59;77.75;96551.66;5050708;28;20497;-74
2023/10/30 07:59:21;;;;;;;0.40;0.40;;;;;;;11.61;77.56;96549.56;5046487;28;20041;-74
2023/10/30 08:01:50;;;;;;;0.30;0.30;;;;;;;11.67;77.21;96547.84;5050868;28;20352;-74
2023/10/30 08:04:18;;;;;;;0.20;0.20;;;;;;;11.73;76.15;96544.25;5045377;28;20155;-75
2023/10/30 08:06:45;;;;;;;0.17;0.17;;;;;;;11.77;75.74;96556.97;5045737;28;20128;-75
2023/10/30 08:09:15;;;;;;;0.30;0.20;;;;;;;11.80;75.98;96555.69;5048602;28;20041;-76
2023/10/30 08:11:44;;;;;;;0.20;0.20;;;;;;;11.83;75.61;96536.53;5047983;28;20069;-74
2023/10/30 08:14:12;;;;;;;0.10;0.10;;;;;;;11.84;75.78;96530.13;5037633;28;20125;-74
2023/10/30 08:16:40;;;;;;;0.20;0.20;;;;;;;11.85;75.58;96533.59;5028147;28;20045;-74
2023/10/30 08:19:08;;;;;;;0.28;0.28;;;;;;;11.87;75.50;96537.69;5018274;28;20071;-75
2023/10/30 08:21:35;;;;;;;0.20;0.20;;;;;;;11.90;75.47;96525.72;5044224;28;20033;-74
2023/10/30 08:24:03;;;;;;;0.17;0.17;;;;;;;11.97;75.58;96523.75;5047354;28;20041;-74
2023/10/30 08:26:32;;;;;;;0.32;0.32;;;;;;;12.02;75.06;96521.22;5054604;28;20132;-74
2023/10/30 08:29:01;;;;;;;0.25;0.25;;;;;;;12.09;74.57;96514.72;5039372;28;20041;-74
2023/10/30 08:31:29;;;;;;;0.17;0.17;;;;;;;12.22;74.34;96531.59;5037868;28;20039;-74
2023/10/30 08:34:00;;;;;;;0.20;0.20;;;;;;;12.34;74.14;96532.44;5042693;28;20517;-74
2023/10/30 08:36:28;;;;;;;0.22;0.20;;;;;;;12.44;73.41;96548.72;5045861;28;20119;-74
2023/10/30 08:38:56;;;;;;;0.20;0.20;;;;;;;12.55;73.33;96547.91;5043903;28;20345;-74
2023/10/30 08:41:24;;;;;;;0.30;0.30;;;;;;;12.68;72.82;96549.53;5039784;28;20044;-77
2023/10/30 08:43:52;;;;;;;0.22;0.22;;;;;;;12.78;71.79;96533.69;5046535;28;20087;-75
2023/10/30 08:46:22;;;;;;;0.17;0.17;;;;;;;12.79;71.79;96536.13;5045790;23;20049;-73
2023/10/30 08:48:50;;;;;;;0.20;0.20;;;;;;;12.82;71.32;96537.53;5005096;28;20122;-75
2023/10/30 08:51:18;;;;;;;0.20;0.20;;;;;;;12.85;70.67;96529.03;5019259;28;20030;-73
2023/10/30 08:53:46;;;;;;;0.25;0.25;;;;;;;12.89;70.92;96527.50;5016757;28;20490;-73
2023/10/30 08:56:14;;;;;;;0.20;0.20;;;;;;;12.92;70.08;96528.91;5007962;28;20045;-73
2023/10/30 08:58:41;;;;;;;0.20;0.20;;;;;;;13.00;69.69;96520.50;5011081;28;20076;-73
2023/10/30 09:01:09;;;;;;;0.30;0.30;;;;;;;13.03;69.87;96530.75;4991007;28;20133;-73
2023/10/30 09:03:41;;;;;;;0.10;0.10;;;;;;;13.10;69.57;96518.03;5010282;28;20046;-73
2023/10/30 09:06:09;;;;;;;0.20;0.20;;;;;;;13.16;69.55;96527.84;5020466;28;20058;-73
2023/10/30 09:08:37;;;;;;;0.20;0.20;;;;;;;13.16;69.11;96515.25;5017073;28;20052;-74
2023/10/30 09:11:04;;;;;;;0.20;0.20;;;;;;;13.22;68.63;96516.97;5018906;28;20042;-73
2023/10/30 09:13:32;;;;;;;0.20;0.20;;;;;;;13.20;68.55;96505.66;5009913;28;20507;-73
2023/10/30 09:16:00;;;;;;;0.65;0.20;;;;;;;13.25;68.81;96506.84;5006408;28;20077;-73
2023/10/30 09:18:28;;;;;;;0.28;0.28;;;;;;;13.27;68.38;96496.69;4991557;28;20053;-73
2023/10/30 09:20:57;;;;;;;0.22;0.20;;;;;;;13.36;68.24;96498.75;5003288;28;20035;-73
2023/10/30 09:23:26;;;;;;;0.20;0.20;;;;;;;13.39;67.83;96497.47;5005506;28;20049;-73
2023/10/30 09:25:53;;;;;;;0.20;0.20;;;;;;;13.45;67.69;96508.03;5012143;28;20577;-73
2023/10/30 09:28:21;;;;;;;0.28;0.28;;;;;;;13.49;67.33;96508.38;5006738;28;20133;-73
2023/10/30 09:30:52;;;;;;;0.20;0.20;;;;;;;13.55;67.13;96508.22;5006687;28;20426;-73
2023/10/30 09:33:20;;;;;;;0.30;0.30;;;;;;;13.58;66.15;96510.44;5000302;28;20119;-73
2023/10/30 09:35:48;;;;;;;0.20;0.20;;;;;;;13.67;66.46;96512.72;4998215;28;20481;-74
2023/10/30 09:38:17;;;;;;;0.20;0.20;;;;;;;13.71;65.44;96503.94;5005853;28;20117;-74
2023/10/30 09:40:46;;;;;;;0.25;0.25;;;;;;;13.77;65.37;96505.69;5007320;28;20042;-73
2023/10/30 09:43:14;;;;;;;0.10;0.10;;;;;;;13.85;65.10;96502.59;5008810;28;20053;-73
2023/10/30 09:45:46;;;;;;;0.20;0.20;;;;;;;13.90;64.99;96501.88;5005101;28;20053;-74
2023/10/30 09:48:14;;;;;;;0.17;0.17;;;;;;;14.00;64.99;96495.88;5001636;28;20120;-73
2023/10/30 09:50:42;;;;;;;0.20;0.20;;;;;;;14.07;65.01;96502.69;5013076;28;20054;-74
2023/10/30 09:53:11;;;;;;;0.28;0.28;;;;;;;14.12;64.67;96492.03;5000149;28;20560;-74
2023/10/30 09:55:40;;;;;;;0.20;0.20;;;;;;;14.17;64.19;96494.81;5006458;28;20057;-74
2023/10/30 09:58:09;;;;;;;0.17;0.17;;;;;;;14.24;64.23;96491.94;5001598;28;20074;-73
2023/10/30 10:00:37;;;;;;;0.10;0.10;;;;;;;14.26;63.62;96479.09;5002119;28;20516;-73
2023/10/30 10:03:06;;;;;;;0.20;0.20;;;;;;;14.25;63.77;96478.28;5006263;28;20046;-74
2023/10/30 10:05:34;;;;;;;0.13;0.13;;;;;;;14.33;63.78;96477.06;5005241;28;20034;-73
2023/10/30 10:08:04;;;;;;;0.20;0.20;;;;;;;14.44;63.69;96481.53;4990527;28;20069;-74
2023/10/30 10:10:55;;;;;;;0.32;0.30;;;;;;;14.56;62.91;96473.38;4996969;28;20046;-73
2023/10/30 10:13:24;;;;;;;0.10;0.10;;;;;;;14.64;62.84;96464.91;5002582;28;20050;-74
2023/10/30 10:15:52;;;;;;;0.30;0.30;;;;;;;14.68;62.20;96463.34;5003626;28;20165;-73
2023/10/30 10:18:24;;;;;;;0.20;0.20;;;;;;;14.71;62.18;96459.38;5004818;28;20035;-74
2023/10/30 10:21:00;;;;;;;0.13;0.13;;;;;;;14.74;61.50;96461.56;5003603;28;20517;-73
2023/10/30 10:23:31;;;;;;;0.20;0.20;;;;;;;14.74;61.43;96458.88;5005004;28;20042;-74
2023/10/30 10:26:03;;;;;;;0.20;0.20;;;;;;;14.82;62.05;96458.44;5018635;28;20038;-74
2023/10/30 10:28:31;;;;;;;0.22;0.22;;;;;;;14.95;61.89;96458.06;5014295;28;20081;-76
2023/10/30 10:31:00;;;;;;;0.17;0.17;;;;;;;14.92;61.05;96445.94;5011584;28;20057;-74
2023/10/30 10:33:30;;;;;;;0.20;0.20;;;;;;;14.92;61.53;96435.19;5012459;28;20042;-73
2023/10/30 10:36:00;;;;;;;0.20;0.20;;;;;;;14.98;61.41;96430.69;5001848;28;20042;-74
2023/10/30 10:38:29;;;;;;;0.10;0.10;;;;;;;15.06;61.56;96432.91;4985242;28;20053;-76
2023/10/30 10:40:56;;;;;;;0.10;0.10;;;;;;;15.17;61.22;96423.09;5009651;28;20117;-73
2023/10/30 10:43:27;;;;;;;0.10;0.10;;;;;;;15.25;61.37;96428.03;5001771;28;20121;-74
2023/10/30 10:45:55;;;;;;;0.20;0.20;;;;;;;15.33;61.65;96420.34;4987154;28;20046;-74
2023/10/30 10:48:25;;;;;;;0.17;0.17;;;;;;;15.28;62.52;96408.69;5005054;28;20049;-74
2023/10/30 10:50:54;;;;;;;0.20;0.20;;;;;;;15.21;64.90;96410.78;5003146;28;20059;-74
2023/10/30 10:53:22;;;;;;;0.10;0.10;;;;;;;15.19;64.61;96413.72;4993102;28;20109;-74
2023/10/30 10:55:51;;;;;;;0.20;0.20;;;;;;;15.18;65.58;96413.97;5009980;28;20056;-73
2023/10/30 10:58:21;;;;;;;0.35;0.35;;;;;;;15.24;66.32;96415.66;5011283;28;20081;-73
2023/10/30 11:00:52;;;;;;;0.20;0.20;;;;;;;15.33;65.96;96414.13;5009774;28;20042;-73
2023/10/30 11:03:21;;;;;;;0.10;0.10;;;;;;;15.50;65.49;96408.66;4990634;28;20489;-74
2023/10/30 11:05:51;;;;;;;0.30;0.30;;;;;;;15.62;65.40;96401.25;4998076;28;20047;-73
2023/10/30 11:08:34;;;;;;;0.17;0.17;;;;;;;15.68;65.00;96400.22;4993517;28;20038;-73
2023/10/30 11:11:09;;;;;;;0.13;0.13;;;;;;;15.72;64.57;96404.84;4989566;28;20066;-74
2023/10/30 11:13:43;;;;;;;0.10;0.10;;;;;;;15.75;64.64;96395.47;4994490;28;20038;-73
2023/10/30 11:16:18;;;;;;;0.20;0.20;;;;;;;15.76;64.55;96397.91;4995695;28;20038;-73
2023/10/30 11:18:46;;;;;;;0.13;0.13;;;;;;;15.83;64.30;96396.84;5008229;28;20060;-74
2023/10/30 11:21:15;;;;;;;0.20;0.20;;;;;;;15.90;63.78;96386.69;4975644;28;20050;-74
2023/10/30 11:23:53;;;;;;;0.30;0.30;;;;;;;15.98;63.56;96392.41;4979146;28;20074;-73
2023/10/30 11:26:38;;;;;;;0.17;0.17;;;;;;;15.98;63.09;96386.22;5009259;28;20077;-74
2023/10/30 11:29:08;;;;;;;0.20;0.20;;;;;;;15.86;63.36;96388.28;5000641;28;20597;-74
2023/10/30 11:31:54;;;;;;;0.45;0.45;;;;;;;15.94;63.43;96367.06;5002467;28;20306;-74
2023/10/30 11:34:30;;;;;;;0.13;0.13;;;;;;;15.99;63.30;96371.66;4999695;28;20053;-73
2023/10/30 11:37:03;;;;;;;0.30;0.30;;;;;;;16.10;62.84;96368.78;4993747;28;20053;-74
2023/10/30 11:39:36;;;;;;;0.35;0.35;;;;;;;16.17;62.85;96368.56;5001935;28;20038;-73